Flight Track Log - Related Links

Times and Time Zones

All times are in EDT time to prevent confusion due to time zone crossing. See the N1570N flight status page for this flight to view local times or setup timezone preferences in your user account.

Time Position Orientation Groundspeed Altitude Reporting Facility
EDT Latitude Longitude Course Direction KTS MPH feet Rate Location/Type
Tue 06:19:56 PM 36.3344 -92.6033 257° West 169 194 6,000  Level Memphis Center
Tue 06:20:56 PM 36.3294 -92.6547 263° West 153 176 6,000 -50 Level Memphis Center
Tue 06:21:56 PM 36.3178 -92.7111 256° West 159 183 5,900 -50 Descending Memphis Center
Tue 06:22:56 PM 36.2878 -92.7592 232° Southwest 164 189 5,900 50 Level Memphis Center
Tue 06:23:56 PM 36.2578 -92.8047 231° Southwest 175 201 6,000 50 Climbing Memphis Center
Tue 06:24:56 PM 36.2275 -92.8500 230° Southwest 175 201 6,000  Level Memphis Center
Tue 06:25:00 PM 36.2915 -92.7786 257° West  Level FlightAware Approximate
Tue 06:25:56 PM 36.2119 -92.9036 250° West 175 201 6,000  Level Memphis Center
Tue 06:26:56 PM 36.1983 -92.9622 254° West 170 196 5,900 -50 Descending Memphis Center
Tue 06:27:56 PM 36.1867 -93.0186 256° West 170 196 5,900 50 Level Memphis Center
Tue 06:28:56 PM 36.1769 -93.0747 258° West 170 196 6,000 50 Climbing Memphis Center
Tue 06:29:56 PM 36.1653 -93.1308 256° West 170 196 6,000  Level Memphis Center
Tue 06:30:56 PM 36.1558 -93.1872 258° West 170 196 6,000  Level Memphis Center
Tue 06:31:56 PM 36.1442 -93.2408 255° West 170 196 6,000 50 Level Memphis Center
Tue 06:32:56 PM 36.1325 -93.2969 256° West 165 190 6,100  Climbing Memphis Center
Tue 06:33:56 PM 36.1228 -93.3531 258° West 165 190 6,000 -50 Descending Memphis Center
Tue 06:34:56 PM 36.1108 -93.4117 256° West 165 190 6,000 50 Level Memphis Center
Tue 06:35:56 PM 36.0989 -93.4703 256° West 165 190 6,100  Climbing Memphis Center
Tue 06:36:56 PM 36.0892 -93.5292 258° West 170 196 6,000 -50 Descending Memphis Center
Tue 06:37:56 PM 36.0750 -93.5903 254° West 177 204 6,000 100 Level Memphis Center
Tue 06:38:56 PM 36.0631 -93.6461 255° West 177 204 6,200  Climbing Memphis Center
Tue 06:39:56 PM 36.0511 -93.7047 256° West 183 211 6,000 -100 Descending Memphis Center
Tue 06:40:56 PM 36.0414 -93.7633 258° West 183 211 6,000 50 Level Memphis Center
Tue 06:41:56 PM 36.0292 -93.8219 256° West 183 211 6,100  Climbing Memphis Center
Tue 06:42:56 PM 36.0192 -93.8806 258° West 183 211 6,000 -50 Descending Memphis Center
Tue 06:43:56 PM 36.0072 -93.9389 256° West 183 211 6,000  Level Memphis Center
Tue 06:46:02 PM 35.9833 -94.0647 257° West 173 199 6,000 -32 Level Kansas City Center
Tue 06:47:04 PM 35.9719 -94.1222 256° West 172 198 5,900 -48 Descending Kansas City Center
Tue 06:48:06 PM 35.9600 -94.1792 255° West 171 197 5,900  Level Kansas City Center
Tue 06:49:08 PM 35.9497 -94.2361 257° West 171 197 5,900  Level Kansas City Center
Tue 06:50:10 PM 35.9381 -94.2925 256° West 170 196 5,900  Level Kansas City Center
Tue 06:51:12 PM 35.9264 -94.3492 256° West 169 194 5,900 48 Level Kansas City Center
Tue 06:52:14 PM 35.9144 -94.4053 255° West 169 194 6,000  Climbing Kansas City Center
Tue 06:53:16 PM 35.9017 -94.4725 257° West 169 194 5,900 -48 Descending Kansas City Center
Tue 06:54:18 PM 35.8903 -94.5286 256° West 168 193 5,900 78 Level Kansas City Center
Tue 06:54:33 PM 35.8861 -94.5436 251° West 175 201 6,000 80 Climbing Memphis Center
Tue 06:55:33 PM 35.8758 -94.5994 257° West 175 201 6,000 50 Level Memphis Center
Tue 06:56:33 PM 35.8636 -94.6550 255° West 175 201 6,100 50 Climbing Memphis Center
Tue 06:57:33 PM 35.8511 -94.7133 255° West 175 201 6,100 -50 Level Memphis Center
Tue 06:58:33 PM 35.8386 -94.7742 256° West 175 201 6,000  Descending Memphis Center
Tue 06:59:33 PM 35.8283 -94.8297 257° West 175 201 6,100 100 Climbing Memphis Center
Tue 07:00:33 PM 35.8156 -94.8881 255° West 181 208 6,200 -50 Climbing Memphis Center
Tue 07:01:33 PM 35.8033 -94.9436 255° West 181 208 6,000 -100 Descending Memphis Center
Tue 07:02:33 PM 35.7928 -95.0019 257° West 181 208 6,000 -50 Level Memphis Center
Tue 07:03:33 PM 35.7800 -95.0628 256° West 181 208 5,900 -32 Descending Memphis Center
Tue 07:05:40 PM 35.7567 -95.1675 255° West 172 198 5,900  Level Kansas City Center
Tue 07:06:42 PM 35.7411 -95.2361 254° West 172 198 5,900 48 Level Kansas City Center
Tue 07:07:44 PM 35.7300 -95.2939 257° West 173 199 6,000  Climbing Kansas City Center
Tue 07:08:46 PM 35.7172 -95.3500 254° West 171 197 5,900 -55 Descending Kansas City Center
Tue 07:09:34 PM 35.7092 -95.3994 259° West 184 212 5,900 56 Level Fort Worth Center
Tue 07:10:34 PM 35.6956 -95.4586 254° West 184 212 6,000 79 Climbing Fort Worth Center
Tue 07:10:50 PM 35.6928 -95.4650 242° Southwest 175 201 6,000  Level Kansas City Center
Tue 07:11:52 PM 35.6806 -95.5206 255° West 170 196 6,000  Level Kansas City Center
Tue 07:12:54 PM 35.6681 -95.5769 255° West 170 196 6,000  Level Kansas City Center
Tue 07:13:57 PM 35.6536 -95.6464 256° West 174 200 6,000  Level Kansas City Center
Tue 07:14:59 PM 35.6408 -95.7025 254° West 173 199 6,000  Level Kansas City Center
Tue 07:16:01 PM 35.6294 -95.7592 256° West 170 196 6,000  Level Kansas City Center
Tue 07:16:34 PM 35.6231 -95.7947 258° West 179 206 6,000 -65 Level Fort Worth Center
Tue 07:17:34 PM 35.6114 -95.8536 256° West 179 206 5,900 -50 Descending Fort Worth Center
Tue 07:18:34 PM 35.5953 -95.9075 250° West 184 212 5,900  Level Fort Worth Center
Tue 07:19:34 PM 35.5814 -95.9614 252° West 184 212 5,900  Level Fort Worth Center
Tue 07:20:34 PM 35.5694 -96.0178 255° West 184 212 5,900 50 Level Fort Worth Center
Tue 07:21:34 PM 35.5575 -96.0742 255° West 184 212 6,000 50 Climbing Fort Worth Center
Tue 07:22:34 PM 35.5458 -96.1328 256° West 184 212 6,000  Level Fort Worth Center
Tue 07:23:34 PM 35.5317 -96.1867 252° West 184 212 6,000 -50 Level Fort Worth Center
Tue 07:24:34 PM 35.5197 -96.2431 255° West 184 212 5,900 -50 Descending Fort Worth Center
Tue 07:25:34 PM 35.5097 -96.3017 258° West 184 212 5,900  Level Fort Worth Center
Tue 07:26:34 PM 35.4956 -96.3581 253° West 184 212 5,900 50 Level Fort Worth Center
Tue 07:27:34 PM 35.4836 -96.4169 256° West 184 212 6,000  Climbing Fort Worth Center
Tue 07:28:34 PM 35.4694 -96.4731 253° West 184 212 5,900 -50 Descending Fort Worth Center
Tue 07:29:34 PM 35.4575 -96.5319 256° West 184 212 5,900 50 Level Fort Worth Center
Tue 07:30:34 PM 35.4453 -96.5881 255° West 184 212 6,000 50 Climbing Fort Worth Center
Tue 07:31:34 PM 35.4331 -96.6467 256° West 184 212 6,000 -50 Level Fort Worth Center
Tue 07:32:34 PM 35.4189 -96.7028 253° West 184 212 5,900 -68 Descending Fort Worth Center
Tue 07:33:02 PM 35.4128 -96.7411 259° West 176 203 5,900 100 Level Fort Worth Center
Tue 07:33:34 PM 35.4067 -96.7617 250° West 184 212 6,000  Climbing Fort Worth Center
Tue 07:33:57 PM 35.4006 -96.7947 257° West 176 203 5,900  Descending Fort Worth Center
Tue 07:34:34 PM 35.3944 -96.8178 252° West 184 212 6,000  Climbing Fort Worth Center
Tue 07:34:51 PM 35.3903 -96.8406 257° West 176 203 5,900 -200 Descending Fort Worth Center
Tue 07:35:34 PM 35.3800 -96.8764 251° West 184 212 5,800  Descending Fort Worth Center
Tue 07:35:52 PM 35.3761 -96.9044 260° West 178 205 5,900 100 Climbing Fort Worth Center
Tue 07:36:34 PM 35.3658 -96.9400 250° West 184 212 5,900  Level Fort Worth Center
Tue 07:36:52 PM 35.3617 -96.9631 258° West 179 206 5,900  Level Fort Worth Center
Tue 07:37:34 PM 35.3533 -96.9986 254° West 184 212 5,900 -197 Level Fort Worth Center
Tue 07:37:53 PM 35.3494 -97.0217 258° West 180 207 5,700 -400 Descending Fort Worth Center
Tue 07:38:34 PM 35.3389 -97.0625 252° West 184 212 5,500 -293 Descending Fort Worth Center

Login

Don't have an account? Register now (free) for customized features, flight alerts, and more!